Time;durP1;ratioP1;P1;durP2;ratioP2;P2;SDS_P1;SDS_P2;PMS_P1;PMS_P2;Temp;Humidity;BMP_temperature;BMP_pressure;BME280_temperature;BME280_humidity;BME280_pressure;Samples;Min_cycle;Max_cycle;Signal;HPM_P1;HPM_P2
2021/11/24 00:00:10;;;;;;;41.03;20.58;;;;;;;-0.26;85.16;101557.19;5028441;28;20088;-69
2021/11/24 00:02:36;;;;;;;39.90;21.08;;;;;;;-0.27;85.31;101558.09;5027531;28;20033;-69
2021/11/24 00:05:02;;;;;;;35.65;19.48;;;;;;;-0.28;85.65;101549.34;5041860;28;20036;-69
2021/11/24 00:07:28;;;;;;;37.38;21.08;;;;;;;-0.27;85.86;101550.19;5051516;28;20021;-69
2021/11/24 00:09:53;;;;;;;37.10;20.88;;;;;;;-0.37;84.93;101549.56;5051364;28;20033;-69
2021/11/24 00:12:18;;;;;;;43.92;21.30;;;;;;;-0.39;84.75;101535.53;5035296;28;20037;-69
2021/11/24 00:14:44;;;;;;;39.10;20.85;;;;;;;-0.36;85.31;101542.50;5028924;28;20033;-69
2021/11/24 00:17:09;;;;;;;37.85;19.35;;;;;;;-0.35;85.53;101545.09;5048899;28;20033;-69
2021/11/24 00:19:35;;;;;;;40.22;19.75;;;;;;;-0.38;85.43;101545.16;5040413;28;20025;-69
2021/11/24 00:22:00;;;;;;;35.70;19.65;;;;;;;-0.44;85.52;101531.28;5031445;28;20033;-69
2021/11/24 00:24:26;;;;;;;35.47;20.48;;;;;;;-0.38;85.64;101541.69;5032412;28;20025;-69
2021/11/24 00:26:51;;;;;;;35.22;19.88;;;;;;;-0.41;85.99;101539.13;5040148;28;20025;-69
2021/11/24 00:29:17;;;;;;;39.67;19.55;;;;;;;-0.39;85.88;101539.94;5049034;28;20161;-69
2021/11/24 00:31:42;;;;;;;36.88;19.90;;;;;;;-0.37;85.61;101544.28;5039840;28;20075;-69
2021/11/24 00:34:08;;;;;;;37.67;19.70;;;;;;;-0.42;85.04;101543.50;5031065;28;20421;-69
2021/11/24 00:36:33;;;;;;;41.17;20.98;;;;;;;-0.52;84.70;101522.69;5030937;28;20397;-69
2021/11/24 00:38:58;;;;;;;38.08;20.77;;;;;;;-0.47;84.45;101534.00;5041252;28;20094;-69
2021/11/24 00:41:24;;;;;;;37.60;19.23;;;;;;;-0.43;85.23;101535.63;5030784;28;20033;-69
2021/11/24 00:43:50;;;;;;;38.22;19.83;;;;;;;-0.58;84.68;101521.06;5046264;28;20459;-69
2021/11/24 00:46:15;;;;;;;38.58;20.48;;;;;;;-0.52;84.79;101528.81;5050943;28;20419;-69
2021/11/24 00:48:41;;;;;;;38.40;21.30;;;;;;;-0.51;85.25;101533.19;5050507;28;20024;-69
2021/11/24 00:51:07;;;;;;;42.35;21.33;;;;;;;-0.54;85.44;101527.97;5037909;28;20032;-69
2021/11/24 00:53:33;;;;;;;37.60;20.83;;;;;;;-0.57;85.31;101537.75;5042712;28;20020;-69
2021/11/24 00:55:58;;;;;;;40.80;20.98;;;;;;;-0.56;85.65;101537.72;5036594;28;20112;-69
2021/11/24 00:58:24;;;;;;;35.60;20.48;;;;;;;-0.57;85.67;101541.25;5038177;28;20028;-69
2021/11/24 01:00:49;;;;;;;41.88;21.30;;;;;;;-0.63;86.56;101519.44;5042573;28;20041;-69
2021/11/24 01:03:15;;;;;;;35.63;20.50;;;;;;;-0.60;86.69;101519.38;5050727;28;20121;-69
2021/11/24 01:05:45;;;;;;;43.97;21.40;;;;;;;-0.65;86.88;101510.69;5050383;28;20040;-69
2021/11/24 01:08:12;;;;;;;37.20;20.25;;;;;;;-0.62;87.09;101521.16;5032595;28;20610;-69
2021/11/24 01:10:37;;;;;;;35.83;20.00;;;;;;;-0.63;87.06;101524.72;5030202;28;20068;-69
2021/11/24 01:13:03;;;;;;;35.70;20.27;;;;;;;-0.63;87.59;101522.06;5046783;28;20052;-69
2021/11/24 01:15:29;;;;;;;37.63;19.65;;;;;;;-0.65;88.09;101518.59;5050285;28;20047;-69
2021/11/24 01:17:55;;;;;;;38.30;19.50;;;;;;;-0.66;88.07;101517.75;5044923;28;20033;-69
2021/11/24 01:20:20;;;;;;;41.50;21.38;;;;;;;-0.72;87.55;101504.72;5029923;28;20029;-69
2021/11/24 01:22:46;;;;;;;40.40;20.83;;;;;;;-0.62;87.75;101529.06;5049139;28;20029;-69
2021/11/24 01:25:11;;;;;;;41.97;21.25;;;;;;;-0.66;87.64;101514.25;5042305;28;20017;-69
2021/11/24 01:27:37;;;;;;;40.88;22.05;;;;;;;-0.74;87.64;101509.13;5042122;28;20516;-69
2021/11/24 01:30:03;;;;;;;48.75;21.92;;;;;;;-0.69;88.06;101523.09;5031849;28;20025;-69
2021/11/24 01:32:29;;;;;;;37.00;20.45;;;;;;;-0.76;88.12;101510.97;5049762;28;20040;-69
2021/11/24 01:34:55;;;;;;;40.83;21.85;;;;;;;-0.66;88.42;101528.28;5048678;28;20033;-69
2021/11/24 01:37:20;;;;;;;40.53;22.05;;;;;;;-0.69;88.51;101519.56;5045858;28;20039;-69
2021/11/24 01:39:46;;;;;;;41.85;21.85;;;;;;;-0.69;88.78;101522.22;5037633;28;20053;-68
2021/11/24 01:42:11;;;;;;;39.42;21.42;;;;;;;-0.69;89.09;101519.56;5029727;28;20025;-69
2021/11/24 01:44:37;;;;;;;40.47;21.60;;;;;;;-0.67;89.57;101526.53;5032501;28;20029;-69
2021/11/24 01:47:04;;;;;;;39.08;20.10;;;;;;;-0.73;89.99;101502.13;5046800;28;20086;-69
2021/11/24 01:49:31;;;;;;;47.33;21.73;;;;;;;-0.69;89.81;101519.56;5041763;28;20029;-68
2021/11/24 01:51:57;;;;;;;39.88;20.73;;;;;;;-0.69;89.68;101520.44;5049454;28;20452;-69
2021/11/24 01:54:24;;;;;;;38.83;20.40;;;;;;;-0.66;90.08;101519.50;5049223;28;20060;-69
2021/11/24 01:56:49;;;;;;;37.33;20.73;;;;;;;-0.68;90.30;101513.44;5045131;28;20512;-69
2021/11/24 01:59:15;;;;;;;42.83;21.27;;;;;;;-0.67;89.92;101515.16;5012042;28;20025;-69
2021/11/24 02:01:42;;;;;;;38.60;20.20;;;;;;;-0.70;89.87;101520.47;5039751;28;20115;-69
2021/11/24 02:04:09;;;;;;;36.03;19.15;;;;;;;-0.68;89.41;101513.44;5029547;28;20025;-69
2021/11/24 02:06:35;;;;;;;36.10;19.20;;;;;;;-0.71;89.03;101516.13;5039056;28;20094;-69
2021/11/24 02:09:00;;;;;;;37.70;20.50;;;;;;;-0.76;88.31;101499.56;5049018;28;20028;-68
2021/11/24 02:11:27;;;;;;;34.88;19.48;;;;;;;-0.72;88.26;101517.00;5031031;28;20025;-69
2021/11/24 02:13:52;;;;;;;35.47;19.00;;;;;;;-0.81;88.43;101498.81;5034030;28;20443;-68
2021/11/24 02:16:19;;;;;;;36.63;19.45;;;;;;;-0.86;87.87;101495.41;5032268;28;20057;-68
2021/11/24 02:18:44;;;;;;;35.40;19.73;;;;;;;-0.87;87.62;101496.31;5029445;28;20473;-69
2021/11/24 02:21:11;;;;;;;35.40;19.83;;;;;;;-0.84;87.09;101505.00;5029107;28;20026;-68
2021/11/24 02:23:36;;;;;;;38.05;19.63;;;;;;;-1.01;86.37;101480.81;5040791;28;20029;-69
2021/11/24 02:26:02;;;;;;;36.92;19.48;;;;;;;-0.92;86.29;101493.78;5030885;28;20027;-69
2021/11/24 02:28:29;;;;;;;37.25;20.60;;;;;;;-0.91;86.60;101489.34;5030645;28;20087;-69
2021/11/24 02:30:54;;;;;;;37.03;20.08;;;;;;;-0.96;86.44;101499.16;5041357;28;20105;-69
2021/11/24 02:33:20;;;;;;;37.05;19.48;;;;;;;-1.01;86.60;101482.56;5032251;28;20030;-69
2021/11/24 02:35:46;;;;;;;33.60;19.40;;;;;;;-1.15;86.35;101467.09;5028782;28;20120;-68
2021/11/24 02:38:16;;;;;;;40.83;21.20;;;;;;;-1.05;85.27;101492.31;5030728;28;20053;-69
2021/11/24 02:40:41;;;;;;;33.63;18.83;;;;;;;-1.07;85.48;101482.69;5048360;28;20033;-68
2021/11/24 02:43:09;;;;;;;35.25;19.23;;;;;;;-1.05;85.62;101480.91;5030457;28;20119;-68
2021/11/24 02:45:34;;;;;;;32.92;17.80;;;;;;;-1.20;85.38;101471.59;5048448;28;20063;-69
2021/11/24 02:48:00;;;;;;;33.50;18.85;;;;;;;-1.11;84.79;101494.19;5030518;28;20029;-68
2021/11/24 02:50:26;;;;;;;38.58;19.85;;;;;;;-1.15;85.26;101488.16;5031127;28;20060;-68
2021/11/24 02:52:51;;;;;;;36.50;18.98;;;;;;;-1.22;85.73;101483.94;5034758;28;20029;-68
2021/11/24 02:55:17;;;;;;;35.30;18.17;;;;;;;-1.22;85.86;101493.56;5028692;28;20026;-68
2021/11/24 02:57:46;;;;;;;39.30;20.23;;;;;;;-1.22;85.73;101496.22;5048473;28;20032;-69
2021/11/24 03:00:18;;;;;;;36.40;18.90;;;;;;;-1.49;84.51;101458.19;5048476;28;20025;-68
2021/11/24 03:02:44;;;;;;;31.40;20.00;;;;;;;-1.33;84.28;101511.34;5048373;28;20136;-68
2021/11/24 03:05:11;;;;;;;37.90;19.92;;;;;;;-1.34;84.58;101509.63;5048213;28;20021;-68
2021/11/24 03:07:37;;;;;;;41.40;21.15;;;;;;;-1.37;84.65;101501.78;5047897;28;20059;-69
2021/11/24 03:10:05;;;;;;;39.47;20.70;;;;;;;-1.40;84.96;101502.72;5045778;28;20473;-68
2021/11/24 03:12:30;;;;;;;37.42;20.02;;;;;;;-1.42;85.29;101501.88;5035815;28;20045;-68
2021/11/24 03:14:56;;;;;;;35.92;20.60;;;;;;;-1.43;85.25;101501.91;5042215;28;20071;-68
2021/11/24 03:17:21;;;;;;;41.10;21.33;;;;;;;-1.45;85.01;101493.19;5048130;28;20140;-69
2021/11/24 03:19:48;;;;;;;37.20;20.02;;;;;;;-1.49;85.07;101505.53;5048025;28;20032;-68
2021/11/24 03:22:14;;;;;;;37.30;19.75;;;;;;;-1.61;84.80;101483.88;5036044;28;20060;-68
2021/11/24 03:24:39;;;;;;;40.53;20.17;;;;;;;-1.57;84.94;101496.06;5027954;28;20052;-68
2021/11/24 03:27:05;;;;;;;37.92;20.25;;;;;;;-1.72;85.41;101476.19;5028180;28;20029;-68
2021/11/24 03:29:30;;;;;;;36.72;19.73;;;;;;;-1.60;85.31;101499.63;5009908;28;20018;-69
2021/11/24 03:31:55;;;;;;;39.95;21.42;;;;;;;-1.59;85.56;101496.09;5036426;28;20430;-68
2021/11/24 03:34:21;;;;;;;34.58;19.65;;;;;;;-1.60;85.79;101496.13;5042834;28;20076;-68
2021/11/24 03:36:46;;;;;;;37.67;20.83;;;;;;;-1.61;85.35;101494.41;5045274;28;20056;-68
2021/11/24 03:39:12;;;;;;;38.28;20.42;;;;;;;-1.63;85.04;101497.06;5040929;28;20034;-69
2021/11/24 03:41:37;;;;;;;39.35;18.95;;;;;;;-1.60;84.92;101501.38;5045686;28;20387;-68
2021/11/24 03:44:03;;;;;;;35.40;18.15;;;;;;;-1.68;84.48;101487.53;5047971;28;20456;-68
2021/11/24 03:46:29;;;;;;;35.60;19.73;;;;;;;-1.67;84.14;101490.13;5047569;28;20040;-68
2021/11/24 03:48:55;;;;;;;33.80;18.95;;;;;;;-1.71;84.65;101491.06;5047603;28;20067;-69
2021/11/24 03:51:20;;;;;;;35.22;19.90;;;;;;;-1.81;84.81;101475.50;5037325;28;20068;-68
2021/11/24 03:53:46;;;;;;;34.33;19.67;;;;;;;-1.70;85.37;101495.44;5028053;28;20045;-69
2021/11/24 03:56:13;;;;;;;40.17;20.70;;;;;;;-1.78;85.51;101484.19;5044126;28;20048;-68
2021/11/24 03:58:39;;;;;;;34.28;19.42;;;;;;;-1.75;84.16;101501.66;5047595;28;20477;-68
2021/11/24 04:01:06;;;;;;;33.10;19.08;;;;;;;-1.77;83.85;101498.22;5040473;28;20091;-68
2021/11/24 04:03:32;;;;;;;32.75;18.27;;;;;;;-1.76;83.39;101502.56;5027474;28;20028;-68
2021/11/24 04:05:57;;;;;;;35.63;18.67;;;;;;;-1.80;83.56;101490.38;5043589;28;20029;-68
2021/11/24 04:08:23;;;;;;;34.33;20.02;;;;;;;-1.81;83.38;101492.13;5047764;28;20017;-68
2021/11/24 04:10:48;;;;;;;43.67;19.83;;;;;;;-1.80;84.22;101503.53;5028044;28;20363;-68
2021/11/24 04:13:14;;;;;;;35.70;19.15;;;;;;;-1.85;83.90;101498.34;5027702;28;20029;-68
2021/11/24 04:15:40;;;;;;;40.55;20.20;;;;;;;-1.85;84.15;101505.34;5027782;28;20026;-68
2021/11/24 04:18:05;;;;;;;35.15;19.95;;;;;;;-1.93;84.40;101487.13;5027548;28;20033;-68
2021/11/24 04:20:31;;;;;;;40.10;18.42;;;;;;;-1.90;84.77;101494.97;5027523;28;20028;-68
2021/11/24 04:22:56;;;;;;;35.85;19.27;;;;;;;-1.92;83.97;101502.00;5027372;28;20075;-68
2021/11/24 04:25:22;;;;;;;38.53;18.75;;;;;;;-1.94;83.04;101501.16;5028992;28;20022;-68
2021/11/24 04:27:49;;;;;;;37.55;19.58;;;;;;;-1.97;82.89;101506.44;5029874;28;20029;-68
2021/11/24 04:30:16;;;;;;;35.22;19.38;;;;;;;-2.07;81.82;101486.50;5032348;28;20033;-68
2021/11/24 04:32:41;;;;;;;37.70;20.40;;;;;;;-1.99;81.64;101504.75;5027209;28;20413;-69
2021/11/24 04:35:08;;;;;;;37.28;19.42;;;;;;;-2.02;81.68;101507.44;5031169;28;20025;-69
2021/11/24 04:37:33;;;;;;;37.58;20.15;;;;;;;-2.03;81.58;101500.44;5029491;28;20025;-69
2021/11/24 04:39:59;;;;;;;35.53;19.45;;;;;;;-2.11;82.05;101497.06;5032035;28;20096;-68
2021/11/24 04:42:24;;;;;;;37.10;19.40;;;;;;;-2.08;82.70;101507.53;5026717;28;20517;-68
2021/11/24 04:44:50;;;;;;;31.40;18.50;;;;;;;-2.16;82.21;101504.19;5027280;28;20481;-69
2021/11/24 04:47:16;;;;;;;36.17;18.98;;;;;;;-2.15;81.51;101514.69;5035468;28;20100;-68
2021/11/24 04:49:42;;;;;;;36.47;18.35;;;;;;;-2.16;82.38;101515.53;5039486;28;20091;-68
2021/11/24 04:52:07;;;;;;;34.40;20.05;;;;;;;-2.23;81.86;101500.78;5043129;28;20628;-68
2021/11/24 04:54:33;;;;;;;38.90;19.02;;;;;;;-2.20;81.78;101513.03;5045361;28;20025;-68
2021/11/24 04:56:58;;;;;;;39.50;19.27;;;;;;;-2.23;82.24;101513.91;5050599;28;20033;-68
2021/11/24 04:59:24;;;;;;;32.97;19.63;;;;;;;-2.24;83.23;101511.31;5044275;28;20032;-68
2021/11/24 05:01:49;;;;;;;37.38;19.50;;;;;;;-2.21;83.07;101516.53;5013113;28;20063;-68
2021/11/24 05:04:15;;;;;;;34.83;19.92;;;;;;;-2.27;82.88;101522.75;5048542;28;20029;-68
2021/11/24 05:06:40;;;;;;;39.03;19.80;;;;;;;-2.29;82.87;101521.91;5041249;28;20033;-68
2021/11/24 05:09:07;;;;;;;38.35;19.88;;;;;;;-2.28;83.32;101520.16;5012568;28;20028;-68
2021/11/24 05:11:35;;;;;;;35.00;18.77;;;;;;;-2.32;83.36;101514.94;5043032;28;20032;-69
2021/11/24 05:14:02;;;;;;;35.63;19.75;;;;;;;-2.31;82.66;101518.44;5038141;28;20108;-68
2021/11/24 05:16:32;;;;;;;38.17;19.60;;;;;;;-2.37;82.97;101506.28;5035299;28;20032;-68
2021/11/24 05:18:58;;;;;;;36.40;19.25;;;;;;;-2.39;82.80;101497.56;5030264;28;20057;-69
2021/11/24 05:21:31;;;;;;;31.65;19.33;;;;;;;-2.33;82.57;101504.47;5045847;28;20675;-69
2021/11/24 05:23:58;;;;;;;34.70;18.70;;;;;;;-2.35;82.72;101503.66;5043158;28;20024;-69
2021/11/24 05:26:27;;;;;;;38.58;19.75;;;;;;;-2.33;81.79;101518.47;5046508;28;20311;-69
2021/11/24 05:28:53;;;;;;;33.63;20.83;;;;;;;-2.37;81.91;101510.66;5050504;28;20032;-69
2021/11/24 05:31:19;;;;;;;36.30;19.27;;;;;;;-2.54;82.30;101482.03;5046182;28;20028;-69
2021/11/24 05:33:46;;;;;;;34.95;18.77;;;;;;;-2.41;82.24;101499.34;5029069;28;20862;-69
2021/11/24 05:36:12;;;;;;;40.70;20.05;;;;;;;-2.40;82.98;101497.59;5044427;28;20021;-69
2021/11/24 05:38:38;;;;;;;37.05;21.00;;;;;;;-2.42;82.56;101504.59;5046095;28;20484;-68
2021/11/24 05:41:04;;;;;;;42.08;21.13;;;;;;;-2.44;82.31;101509.03;5049350;28;20029;-69
2021/11/24 05:43:30;;;;;;;38.33;18.83;;;;;;;-2.53;81.92;101493.41;5033694;28;20037;-69
2021/11/24 05:48:23;;;;;;;39.33;19.60;;;;;;;-2.56;80.79;101499.59;5048054;28;20029;-69
2021/11/24 05:50:50;;;;;;;38.83;19.63;;;;;;;-2.54;81.13;101503.06;5035928;28;20071;-69
2021/11/24 05:53:19;;;;;;;35.25;18.58;;;;;;;-2.53;81.38;101512.69;5048519;28;20029;-69
2021/11/24 05:55:48;;;;;;;40.75;21.27;;;;;;;-2.51;82.60;101520.53;5042563;28;20487;-69
2021/11/24 05:58:16;;;;;;;38.08;19.48;;;;;;;-2.52;83.09;101517.03;5043521;28;20029;-69
2021/11/24 06:00:41;;;;;;;37.40;18.02;;;;;;;-2.56;83.56;101502.22;5029590;28;20397;-69
2021/11/24 06:03:07;;;;;;;37.55;20.42;;;;;;;-2.49;83.87;101513.47;5041719;28;20327;-69
2021/11/24 06:05:32;;;;;;;36.28;19.90;;;;;;;-2.55;84.19;101517.06;5016329;28;20017;-69
2021/11/24 06:07:58;;;;;;;40.50;19.98;;;;;;;-2.50;83.57;101520.53;5031824;28;20048;-69
2021/11/24 06:10:25;;;;;;;36.97;19.75;;;;;;;-2.48;84.09;101521.34;5011036;28;20064;-69
2021/11/24 06:12:50;;;;;;;40.42;19.25;;;;;;;-2.45;85.34;101525.69;5039732;28;20025;-68
2021/11/24 06:15:16;;;;;;;32.03;19.05;;;;;;;-2.44;85.21;101525.69;5028932;28;20044;-69
2021/11/24 06:17:46;;;;;;;30.88;18.80;;;;;;;-2.43;85.37;101526.53;5045086;28;20036;-69
2021/11/24 06:20:13;;;;;;;41.30;20.70;;;;;;;-2.41;84.96;101530.00;5038041;28;20493;-69
2021/11/24 06:22:39;;;;;;;47.40;19.95;;;;;;;-2.49;85.07;101524.00;5036267;28;20489;-69
2021/11/24 06:25:06;;;;;;;37.35;20.88;;;;;;;-2.40;84.88;101537.84;5043748;28;20480;-69
2021/11/24 06:27:32;;;;;;;38.10;19.85;;;;;;;-2.41;85.16;101541.34;5048467;28;20029;-69
2021/11/24 06:29:57;;;;;;;39.17;20.67;;;;;;;-2.36;85.46;101533.41;5018000;28;20036;-69
2021/11/24 06:32:23;;;;;;;37.83;19.67;;;;;;;-2.36;85.15;101536.91;5040478;28;20091;-69
2021/11/24 06:34:49;;;;;;;49.17;20.98;;;;;;;-2.43;85.58;101519.53;5041705;28;20033;-69
2021/11/24 06:37:14;;;;;;;44.47;21.17;;;;;;;-2.36;86.05;101534.28;5028034;28;20024;-69
2021/11/24 06:39:39;;;;;;;39.25;21.08;;;;;;;-2.32;86.61;101535.97;5037729;28;20425;-69
2021/11/24 06:42:05;;;;;;;39.15;20.50;;;;;;;-2.29;86.61;101549.94;5034996;28;20033;-69
2021/11/24 06:44:31;;;;;;;36.97;19.90;;;;;;;-2.29;87.33;101547.31;5030496;28;20036;-69
2021/11/24 06:46:56;;;;;;;38.08;21.15;;;;;;;-2.21;87.59;101555.94;5048266;28;20021;-68
2021/11/24 06:49:22;;;;;;;39.65;21.48;;;;;;;-2.13;88.54;101557.53;5043322;28;20057;-69
2021/11/24 06:51:47;;;;;;;45.97;23.52;;;;;;;-2.09;90.01;101559.25;5033007;28;20385;-69
2021/11/24 06:54:16;;;;;;;42.28;23.10;;;;;;;-2.01;91.05;101564.34;5028324;28;20041;-69
2021/11/24 06:56:42;;;;;;;44.65;23.55;;;;;;;-1.94;91.66;101558.13;5029837;28;20025;-69
2021/11/24 06:59:07;;;;;;;44.80;24.63;;;;;;;-1.86;93.42;101566.72;5048276;28;20450;-68
2021/11/24 07:01:33;;;;;;;43.25;25.58;;;;;;;-1.80;94.38;101562.25;5047775;28;20025;-69
2021/11/24 07:03:58;;;;;;;44.03;25.23;;;;;;;-1.71;95.02;101564.69;5048152;28;20082;-69
2021/11/24 07:06:23;;;;;;;51.00;25.17;;;;;;;-1.62;95.41;101555.78;5028632;28;20018;-69
2021/11/24 07:08:49;;;;;;;44.15;25.52;;;;;;;-1.68;96.37;101527.81;5044480;28;20043;-69
2021/11/24 07:11:14;;;;;;;49.95;27.63;;;;;;;-1.50;96.27;101547.63;5047619;28;20037;-69
2021/11/24 07:13:40;;;;;;;50.35;27.08;;;;;;;-1.39;96.88;101558.84;5047645;28;20032;-69
2021/11/24 07:16:05;;;;;;;51.70;26.70;;;;;;;-1.28;96.99;101568.25;5047089;28;20024;-69
2021/11/24 07:18:31;;;;;;;45.47;24.70;;;;;;;-1.22;96.92;101572.53;5045027;28;20025;-69
2021/11/24 07:20:56;;;;;;;54.20;26.90;;;;;;;-1.15;97.50;101574.13;5022374;28;20047;-69
2021/11/24 07:23:22;;;;;;;49.92;25.13;;;;;;;-1.07;97.99;101575.69;5030190;28;20029;-69
2021/11/24 07:25:47;;;;;;;45.70;23.80;;;;;;;-1.02;98.12;101567.72;5044761;28;20013;-69
2021/11/24 07:28:14;;;;;;;50.13;24.52;;;;;;;-0.92;98.35;101572.75;5042631;28;20031;-69
2021/11/24 07:30:40;;;;;;;50.05;25.75;;;;;;;-0.87;98.90;101564.78;5019482;28;20057;-70
2021/11/24 07:33:05;;;;;;;44.58;24.27;;;;;;;-0.80;99.13;101564.59;5033526;28;20033;-69
2021/11/24 07:35:32;;;;;;;49.42;24.65;;;;;;;-0.71;99.33;101569.66;5036437;28;20459;-69
2021/11/24 07:37:58;;;;;;;44.40;22.83;;;;;;;-0.64;99.80;101560.72;5034967;28;20480;-70
2021/11/24 07:40:23;;;;;;;44.65;23.70;;;;;;;-0.55;99.75;101557.88;5039722;28;20094;-70
2021/11/24 07:42:50;;;;;;;45.80;24.70;;;;;;;-0.50;99.83;101556.00;5012916;28;20084;-70
2021/11/24 07:45:16;;;;;;;51.08;26.25;;;;;;;-0.43;100.00;101569.91;5035622;28;20424;-70
2021/11/24 07:47:42;;;;;;;45.10;25.63;;;;;;;-0.32;100.00;101567.91;5017623;28;20021;-70
2021/11/24 07:50:08;;;;;;;52.10;28.35;;;;;;;-0.28;100.00;101559.00;5038957;28;20079;-70
2021/11/24 07:52:34;;;;;;;49.38;26.98;;;;;;;-0.20;100.00;101559.66;5030527;28;20021;-70
2021/11/24 07:54:59;;;;;;;55.63;28.85;;;;;;;-0.11;100.00;101570.88;5044137;28;20091;-69
2021/11/24 07:57:24;;;;;;;56.35;27.80;;;;;;;-0.07;99.90;101556.72;5018865;28;20083;-69
2021/11/24 07:59:50;;;;;;;51.00;28.00;;;;;;;0.00;99.76;101560.06;5020487;28;20036;-70
2021/11/24 08:02:15;;;;;;;53.10;28.35;;;;;;;0.02;99.74;101558.25;5034300;28;20025;-70
2021/11/24 08:04:41;;;;;;;51.08;27.85;;;;;;;0.13;99.97;101563.25;5036573;28;20073;-70
2021/11/24 08:07:07;;;;;;;55.13;27.65;;;;;;;0.23;99.92;101564.75;5030421;28;20469;-67
2021/11/24 08:09:32;;;;;;;55.63;28.88;;;;;;;0.24;99.77;101558.56;5027177;28;20026;-67
2021/11/24 08:11:59;;;;;;;52.80;27.77;;;;;;;0.28;99.76;101552.28;5034061;28;20531;-67
2021/11/24 08:14:28;;;;;;;55.25;28.55;;;;;;;0.34;99.54;101546.84;5029391;28;20390;-67
2021/11/24 08:16:54;;;;;;;55.65;31.67;;;;;;;0.42;99.37;101550.16;5039088;28;20381;-67
2021/11/24 08:19:20;;;;;;;54.58;28.98;;;;;;;0.55;98.80;101552.41;5043421;28;20032;-67
2021/11/24 08:21:45;;;;;;;60.60;31.23;;;;;;;0.58;98.85;101552.34;5039851;28;20024;-67
2021/11/24 08:24:11;;;;;;;55.63;30.77;;;;;;;0.63;98.61;101546.94;5043965;28;20056;-67
2021/11/24 08:26:38;;;;;;;58.90;31.00;;;;;;;0.69;98.33;101545.00;5049116;28;20017;-67
2021/11/24 08:29:03;;;;;;;54.75;29.15;;;;;;;0.76;98.09;101546.56;5045688;28;20153;-68
2021/11/24 08:31:29;;;;;;;61.88;32.28;;;;;;;0.82;98.01;101549.03;5035433;28;20103;-67
2021/11/24 08:33:55;;;;;;;51.53;29.13;;;;;;;0.74;97.78;101529.88;5048862;28;20044;-68
2021/11/24 08:36:21;;;;;;;50.97;30.00;;;;;;;0.90;97.39;101535.59;5045558;28;20394;-66
2021/11/24 08:38:47;;;;;;;55.50;29.15;;;;;;;0.90;97.42;101523.25;5045487;28;20068;-67
2021/11/24 08:41:15;;;;;;;54.13;28.83;;;;;;;1.08;96.71;101543.84;5030930;28;20029;-67
2021/11/24 08:43:41;;;;;;;50.72;29.08;;;;;;;1.21;95.42;101539.06;5039911;28;20028;-67
2021/11/24 08:46:07;;;;;;;54.58;30.45;;;;;;;1.17;95.42;101526.84;5036946;28;20048;-67
2021/11/24 08:48:33;;;;;;;48.38;27.45;;;;;;;1.26;95.61;101543.28;5033394;28;20037;-67
2021/11/24 08:50:59;;;;;;;50.70;29.05;;;;;;;1.35;95.28;101550.09;5045612;28;20123;-67
2021/11/24 08:53:25;;;;;;;50.53;28.00;;;;;;;1.40;95.54;101549.03;5038860;28;20503;-67
2021/11/24 08:55:51;;;;;;;49.08;28.27;;;;;;;1.44;95.10;101553.31;5040693;28;20067;-68
2021/11/24 08:58:17;;;;;;;42.30;27.10;;;;;;;1.45;95.06;101535.69;5035857;28;20033;-67
2021/11/24 09:00:44;;;;;;;42.78;26.58;;;;;;;1.53;94.58;101539.81;5045518;28;20036;-67
2021/11/24 09:03:10;;;;;;;52.25;26.33;;;;;;;1.64;94.31;101537.69;5035870;28;20048;-66
2021/11/24 09:05:36;;;;;;;42.80;24.40;;;;;;;1.71;93.80;101546.28;5041500;28;20025;-67
2021/11/24 09:08:03;;;;;;;43.90;25.30;;;;;;;1.79;93.59;101541.59;5039997;28;20109;-68
2021/11/24 09:10:30;;;;;;;43.42;24.95;;;;;;;1.83;93.08;101537.94;5037590;28;20072;-68
2021/11/24 09:12:57;;;;;;;43.53;24.60;;;;;;;1.93;92.75;101540.22;5033917;28;20105;-67
2021/11/24 09:15:23;;;;;;;40.63;23.63;;;;;;;2.01;92.52;101534.69;5032751;28;20037;-67
2021/11/24 09:17:48;;;;;;;39.85;23.45;;;;;;;1.97;92.23;101519.84;5040344;28;20037;-67
2021/11/24 09:20:14;;;;;;;40.60;22.98;;;;;;;2.15;91.53;101530.66;5032682;28;20504;-67
2021/11/24 09:22:43;;;;;;;37.45;23.08;;;;;;;2.18;91.59;101525.28;5029981;28;20023;-68
2021/11/24 09:25:12;;;;;;;39.00;22.83;;;;;;;2.27;91.43;101532.03;5047761;28;20415;-67
2021/11/24 09:27:47;;;;;;;36.00;21.88;;;;;;;2.38;91.62;101529.84;5042903;28;20515;-67
2021/11/24 09:30:14;;;;;;;35.38;22.05;;;;;;;2.42;90.56;101516.47;5045168;28;20044;-67
2021/11/24 09:32:41;;;;;;;36.70;21.55;;;;;;;2.52;90.68;101521.44;5032275;28;20048;-68
2021/11/24 09:35:08;;;;;;;35.53;20.83;;;;;;;2.58;89.50;101518.56;5043739;28;20163;-67
2021/11/24 09:37:33;;;;;;;36.08;21.67;;;;;;;2.66;88.87;101513.84;5032516;28;20032;-66
2021/11/24 09:40:00;;;;;;;33.65;20.90;;;;;;;2.72;88.64;101511.84;5043118;28;20045;-68
2021/11/24 09:42:28;;;;;;;32.80;20.58;;;;;;;2.78;88.45;101503.69;5042798;28;20029;-67
2021/11/24 09:44:56;;;;;;;33.28;20.23;;;;;;;2.88;87.59;101502.41;5029973;28;20056;-67
2021/11/24 09:47:25;;;;;;;31.27;19.25;;;;;;;2.96;87.42;101505.63;5038035;28;20474;-67
2021/11/24 09:49:58;;;;;;;30.00;19.42;;;;;;;3.02;87.02;101499.22;5011984;28;20052;-68
2021/11/24 09:52:25;;;;;;;29.25;18.13;;;;;;;3.12;85.92;101498.81;5029702;28;20021;-67
2021/11/24 09:54:50;;;;;;;32.17;18.85;;;;;;;3.20;84.85;101499.41;5042793;28;20086;-67
2021/11/24 09:57:18;;;;;;;27.90;18.20;;;;;;;3.23;84.23;101482.50;5034072;28;20025;-67
2021/11/24 09:59:44;;;;;;;29.33;18.88;;;;;;;3.26;84.21;101464.69;5031795;28;20366;-67
2021/11/24 10:02:12;;;;;;;29.05;18.17;;;;;;;3.38;84.08;101477.47;5019163;28;20030;-68
2021/11/24 10:04:40;;;;;;;32.00;17.15;;;;;;;3.45;83.62;101478.09;5034390;28;20032;-67
2021/11/24 10:07:09;;;;;;;29.88;19.02;;;;;;;3.51;83.07;101476.03;5032630;28;20033;-67
2021/11/24 10:09:35;;;;;;;32.22;18.83;;;;;;;3.55;82.66;101467.03;5025522;28;20447;-67
2021/11/24 10:12:01;;;;;;;29.15;17.65;;;;;;;3.61;82.21;101477.38;5042262;28;20033;-67
2021/11/24 10:14:27;;;;;;;33.92;19.35;;;;;;;3.68;81.86;101472.72;5034252;28;20078;-67
2021/11/24 10:17:10;;;;;;;33.35;19.23;;;;;;;3.76;81.16;101476.78;5039445;28;20032;-67
2021/11/24 10:19:36;;;;;;;33.10;19.85;;;;;;;3.83;80.55;101477.34;5040862;28;20024;-66
2021/11/24 10:22:03;;;;;;;31.23;19.40;;;;;;;3.94;79.77;101475.13;5039065;28;20033;-67
2021/11/24 10:24:45;;;;;;;33.83;20.67;;;;;;;3.96;79.27;101473.25;5029037;28;20049;-66
2021/11/24 10:27:13;;;;;;;34.65;20.98;;;;;;;4.05;78.97;101475.53;5047863;28;20538;-67
2021/11/24 10:29:52;;;;;;;37.75;20.55;;;;;;;4.09;78.84;101466.50;5035710;28;20043;-67
2021/11/24 10:32:18;;;;;;;34.75;20.83;;;;;;;4.18;78.83;101469.63;5048616;28;20108;-67
2021/11/24 10:34:43;;;;;;;34.20;19.40;;;;;;;4.20;78.26;101459.78;5048435;28;20128;-66
2021/11/24 10:37:12;;;;;;;33.03;20.90;;;;;;;4.40;76.89;101461.59;5048431;28;20035;-67
2021/11/24 10:39:48;;;;;;;38.03;21.67;;;;;;;4.45;76.91;101456.94;5029582;28;20056;-67
2021/11/24 10:42:23;;;;;;;33.60;19.88;;;;;;;4.51;76.00;101449.56;5028623;28;20045;-66
2021/11/24 10:44:55;;;;;;;33.78;20.10;;;;;;;4.73;75.10;101452.09;5032486;28;20112;-67
2021/11/24 10:47:22;;;;;;;36.22;20.30;;;;;;;4.75;75.63;101458.22;5035808;28;20017;-67
2021/11/24 10:49:52;;;;;;;28.88;17.55;;;;;;;4.82;75.55;101456.13;5044705;28;20033;-67
2021/11/24 10:52:20;;;;;;;29.08;17.77;;;;;;;4.86;74.71;101449.75;5039968;28;20107;-66
2021/11/24 10:55:00;;;;;;;30.65;18.50;;;;;;;4.89;74.21;101442.47;5045340;28;20068;-66
2021/11/24 10:57:26;;;;;;;30.83;18.58;;;;;;;4.96;74.51;101438.59;5046202;28;20036;-67
2021/11/24 10:59:58;;;;;;;30.52;19.10;;;;;;;5.02;74.33;101440.97;5010493;28;20053;-67
2021/11/24 11:02:45;;;;;;;28.83;16.70;;;;;;;5.05;73.94;101443.47;5040065;28;20033;-67
2021/11/24 11:05:21;;;;;;;27.75;16.13;;;;;;;5.11;73.68;101427.25;5037280;28;20037;-67
2021/11/24 11:07:49;;;;;;;26.45;15.65;;;;;;;5.18;73.31;101427.81;5035435;28;20124;-67
2021/11/24 11:10:20;;;;;;;30.08;15.68;;;;;;;5.23;72.64;101426.66;5028436;28;20464;-67